Time;durP1;ratioP1;P1;durP2;ratioP2;P2;SDS_P1;SDS_P2;PMS_P1;PMS_P2;Temp;Humidity;BMP_temperature;BMP_pressure;BME280_temperature;BME280_humidity;BME280_pressure;Samples;Min_cycle;Max_cycle;Signal;HPM_P1;HPM_P2
2021/10/28 00:15:11;;;;;;;7.80;7.00;;;;;;;11.77;76.34;101338.52;230239;1196;138884;-73
2021/10/28 00:20:15;;;;;;;9.00;8.00;;;;;;;11.82;76.07;101343.39;230439;1195;138583;-74
2021/10/28 00:25:16;;;;;;;10.00;9.00;;;;;;;11.87;75.75;101339.77;230657;1196;138704;-73
2021/10/28 00:30:19;;;;;;;8.90;7.60;;;;;;;11.86;75.89;101338.94;230592;1195;138724;-74
2021/10/28 00:35:21;;;;;;;8.80;7.90;;;;;;;11.83;76.23;101334.22;230568;1200;139021;-74
2021/10/28 00:40:23;;;;;;;9.30;8.40;;;;;;;11.90;75.94;101332.06;230433;1195;138600;-75
2021/10/28 00:45:25;;;;;;;9.10;8.30;;;;;;;11.90;75.92;101329.45;230705;1195;138384;-74
2021/10/28 00:50:27;;;;;;;8.60;7.80;;;;;;;11.89;75.94;101327.21;230032;1196;138824;-75
2021/10/28 00:55:29;;;;;;;9.60;7.60;;;;;;;11.91;75.89;101322.39;230747;1195;138918;-74
2021/10/28 01:00:31;;;;;;;8.20;7.40;;;;;;;11.92;75.88;101324.48;230719;1186;138010;-74
2021/10/28 01:05:33;;;;;;;10.30;7.80;;;;;;;11.89;75.96;101328.83;230785;1196;138319;-74
2021/10/28 01:10:35;;;;;;;6.90;6.20;;;;;;;11.90;75.90;101322.16;229911;1196;139606;-73
2021/10/28 01:15:37;;;;;;;8.00;7.10;;;;;;;11.96;75.66;101317.73;230970;1196;138403;-74
2021/10/28 01:20:41;;;;;;;7.30;6.50;;;;;;;11.92;75.69;101312.04;230460;1196;138014;-73
2021/10/28 01:25:57;;;;;;;7.60;6.90;;;;;;;11.87;75.82;101307.26;230903;1196;138994;-74
2021/10/28 01:31:02;;;;;;;7.10;6.40;;;;;;;11.87;75.95;101307.95;230576;1197;138457;-75
2021/10/28 01:36:05;;;;;;;6.30;5.70;;;;;;;11.94;75.47;101313.69;230776;1194;138698;-75
2021/10/28 01:41:06;;;;;;;7.40;6.70;;;;;;;11.96;75.45;101312.27;230565;1194;138300;-74
2021/10/28 01:46:09;;;;;;;8.90;6.50;;;;;;;11.94;75.44;101309.59;230734;1196;138483;-73
2021/10/28 01:51:11;;;;;;;5.50;5.00;;;;;;;11.91;75.62;101309.37;230685;1195;142895;-72
2021/10/28 01:56:13;;;;;;;6.40;5.90;;;;;;;11.97;75.30;101312.63;230637;1196;138976;-77
2021/10/28 02:01:15;;;;;;;6.20;5.70;;;;;;;11.99;75.10;101303.61;230638;1196;138470;-73
2021/10/28 02:06:17;;;;;;;6.60;5.40;;;;;;;11.93;75.46;101302.95;230127;1197;138640;-74
2021/10/28 02:11:19;;;;;;;8.20;6.40;;;;;;;11.92;75.39;101302.02;229778;1195;139172;-72
2021/10/28 02:16:20;;;;;;;7.60;6.90;;;;;;;11.93;75.31;101296.45;230018;1196;138748;-73
2021/10/28 02:21:22;;;;;;;8.20;7.40;;;;;;;11.81;75.77;101294.38;229884;1196;138049;-74
2021/10/28 02:26:25;;;;;;;7.40;6.70;;;;;;;11.78;75.81;101289.98;230700;1196;138918;-73
2021/10/28 02:31:28;;;;;;;8.20;6.50;;;;;;;11.83;75.55;101289.20;229791;1196;139288;-75
2021/10/28 02:36:29;;;;;;;7.70;7.00;;;;;;;11.88;75.37;101296.54;230035;1195;139370;-73
2021/10/28 02:41:31;;;;;;;7.40;6.50;;;;;;;11.86;75.32;101298.69;230177;1196;138450;-74
2021/10/28 02:46:33;;;;;;;6.70;6.10;;;;;;;11.81;75.47;101301.07;230673;1196;138348;-73
2021/10/28 02:51:35;;;;;;;6.40;5.90;;;;;;;11.79;75.61;101302.81;229879;1196;138752;-75
2021/10/28 02:56:37;;;;;;;9.60;7.10;;;;;;;11.87;75.28;101311.42;230028;1195;138349;-74
2021/10/28 03:01:47;;;;;;;7.80;7.10;;;;;;;11.89;75.22;101313.63;230458;1196;138991;-74
2021/10/28 03:06:50;;;;;;;7.70;6.50;;;;;;;11.81;75.41;101314.81;230312;1196;139175;-74
2021/10/28 03:11:55;;;;;;;6.80;6.10;;;;;;;11.76;75.77;101320.20;230793;1196;139217;-74
2021/10/28 03:27:39;;;;;;;7.80;6.90;;;;;;;11.80;75.52;101334.84;230590;1194;138567;-74
2021/10/28 03:32:41;;;;;;;6.40;5.80;;;;;;;11.79;75.32;101343.25;230537;1196;138733;-74
2021/10/28 04:30:27;;;;;;;7.40;6.80;;;;;;;11.59;75.92;101379.88;230930;1195;139478;-73
2021/10/28 04:35:29;;;;;;;8.70;7.80;;;;;;;11.62;75.95;101382.59;230772;1195;138462;-74
2021/10/28 04:40:31;;;;;;;9.10;8.20;;;;;;;11.63;75.82;101384.20;230788;1195;138139;-75
2021/10/28 04:45:32;;;;;;;8.90;8.10;;;;;;;11.57;75.92;101382.52;230744;1195;138648;-73
2021/10/28 04:50:34;;;;;;;9.40;8.50;;;;;;;11.60;75.87;101384.36;230698;1196;138522;-74
2021/10/28 04:55:36;;;;;;;11.00;9.90;;;;;;;11.62;75.77;101384.34;230634;1196;141264;-75
2021/10/28 05:00:38;;;;;;;9.90;8.90;;;;;;;11.65;75.48;101386.71;230673;1199;139349;-74
2021/10/28 05:05:40;;;;;;;10.70;9.70;;;;;;;11.60;75.73;101394.23;230174;1196;138334;-76
2021/10/28 05:10:43;;;;;;;9.60;8.70;;;;;;;11.59;75.82;101401.90;230487;1196;139425;-73
2021/10/28 05:15:48;;;;;;;10.50;9.50;;;;;;;11.63;75.65;101405.02;230567;1195;139310;-75
2021/10/28 05:20:50;;;;;;;11.00;9.50;;;;;;;11.63;75.50;101400.09;230072;1195;138888;-72
2021/10/28 05:25:52;;;;;;;10.80;9.80;;;;;;;11.61;75.43;101405.46;230170;1195;139246;-74
2021/10/28 05:30:53;;;;;;;14.60;13.10;;;;;;;11.60;75.74;101412.55;230329;1196;139830;-71
2021/10/28 05:35:55;;;;;;;11.80;10.00;;;;;;;11.62;75.66;101416.06;230546;1195;139165;-73
2021/10/28 05:40:57;;;;;;;11.20;10.10;;;;;;;11.61;75.62;101420.96;230593;1195;138314;-74
2021/10/28 05:45:58;;;;;;;14.50;13.00;;;;;;;11.57;75.86;101425.17;229626;1196;138777;-74
2021/10/28 05:51:01;;;;;;;12.50;11.30;;;;;;;11.59;75.92;101428.56;230715;1196;139401;-74
2021/10/28 05:56:03;;;;;;;13.80;12.50;;;;;;;11.61;75.85;101430.13;230629;1196;139039;-74
2021/10/28 06:01:04;;;;;;;14.30;12.90;;;;;;;11.67;75.50;101430.08;230363;1196;138755;-74
2021/10/28 06:06:06;;;;;;;13.90;12.50;;;;;;;11.61;75.81;101443.17;230596;1196;139106;-74
2021/10/28 06:11:08;;;;;;;14.90;12.50;;;;;;;11.56;76.00;101439.01;230243;1196;138885;-74
2021/10/28 06:16:10;;;;;;;13.50;12.10;;;;;;;11.56;76.13;101443.27;230883;1195;139499;-75
2021/10/28 06:21:13;;;;;;;24.10;13.50;;;;;;;11.55;76.18;101443.52;230646;1196;138918;-73
2021/10/28 06:26:17;;;;;;;14.80;13.40;;;;;;;11.63;75.63;101444.47;230115;1196;138309;-73
2021/10/28 06:31:18;;;;;;;16.20;14.00;;;;;;;11.58;75.86;101449.43;230622;1195;140565;-76
2021/10/28 06:36:24;;;;;;;16.70;15.00;;;;;;;11.61;75.81;101450.92;230638;1196;139741;-73
2021/10/28 06:41:25;;;;;;;;;;;;;;;11.70;75.40;101453.85;230568;1196;138651;-73
2021/10/28 06:46:28;;;;;;;12.10;11.00;;;;;;;11.69;75.36;101461.04;230454;1196;124811;-75
2021/10/28 06:51:35;;;;;;;13.50;12.20;;;;;;;11.65;75.44;101459.45;230612;1194;138684;-76
2021/10/28 07:07:16;;;;;;;17.10;15.20;;;;;;;11.67;75.52;101474.98;230604;1196;139027;-76
2021/10/28 07:12:26;;;;;;;13.60;12.30;;;;;;;11.68;75.51;101471.02;230998;1194;204076;-74
2021/10/28 07:17:39;;;;;;;13.40;12.20;;;;;;;11.72;75.22;101466.63;230384;1196;138536;-73
2021/10/28 08:05:23;;;;;;;11.70;10.50;;;;;;;12.10;73.21;101465.79;229766;1196;139262;-73
2021/10/28 08:31:53;;;;;;;10.40;9.40;;;;;;;12.20;72.81;101471.39;230336;1195;139446;-74
2021/10/28 08:36:56;;;;;;;12.60;11.40;;;;;;;12.22;72.93;101475.46;230536;1196;138416;-74
2021/10/28 08:42:02;;;;;;;12.50;11.20;;;;;;;12.24;72.83;101469.94;229556;1195;138380;-75
2021/10/28 08:47:04;;;;;;;11.80;10.60;;;;;;;12.26;72.77;101469.45;229530;1195;138670;-74
2021/10/28 09:25:11;;;;;;;12.00;10.80;;;;;;;12.45;71.27;101470.56;230190;1195;142530;-74
2021/10/28 09:30:31;;;;;;;11.80;10.70;;;;;;;12.45;71.50;101469.30;230220;1202;138303;-74
2021/10/28 09:36:09;;;;;;;11.40;10.30;;;;;;;12.44;71.71;101471.83;230600;1196;138356;-77
2021/10/28 09:46:35;;;;;;;12.70;11.60;;;;;;;12.57;71.12;101472.14;230480;1195;138960;-74
2021/10/28 09:51:47;;;;;;;;;;;;;;;12.57;70.91;101475.14;230639;1196;138776;-74
2021/10/28 10:02:38;;;;;;;14.10;12.40;;;;;;;12.61;70.76;101472.80;230600;1196;139442;-74
2021/10/28 10:07:40;;;;;;;;;;;;;;;12.68;70.66;101470.59;230540;1196;139439;-73
2021/10/28 10:12:44;;;;;;;11.50;10.40;;;;;;;12.77;70.22;101472.92;230648;1196;125349;-75
2021/10/28 10:17:51;;;;;;;12.00;10.90;;;;;;;12.77;69.74;101475.80;230916;1195;138272;-75
2021/10/28 10:23:05;;;;;;;13.10;11.80;;;;;;;12.69;69.84;101474.58;230547;1197;138400;-72
2021/10/28 11:23:10;;;;;;;12.70;11.60;;;;;;;12.80;67.81;101470.71;229366;1200;139021;-74
2021/10/28 12:28:02;;;;;;;13.70;12.40;;;;;;;13.23;65.30;101424.27;230904;1196;139493;-76
2021/10/28 12:50:20;;;;;;;16.40;14.70;;;;;;;15.91;56.89;101400.12;230057;1196;139490;-77
2021/10/28 13:49:01;;;;;;;15.80;14.30;;;;;;;13.73;64.06;101386.48;230186;1197;139125;-77
2021/10/28 13:59:27;;;;;;;16.20;14.60;;;;;;;13.64;64.37;101380.33;230473;1195;138486;-74
2021/10/28 14:20:52;;;;;;;14.40;13.00;;;;;;;13.16;66.53;101379.43;230563;1197;139250;-75
2021/10/28 14:26:35;;;;;;;14.60;13.10;;;;;;;13.06;66.91;101376.84;230465;1197;138633;-75
2021/10/28 15:03:11;;;;;;;15.50;14.00;;;;;;;12.74;68.66;101371.54;230814;1195;138887;-74
2021/10/28 15:29:50;;;;;;;18.70;15.40;;;;;;;12.12;71.45;101363.98;230564;1187;138321;-78
2021/10/28 16:22:44;;;;;;;22.10;18.90;;;;;;;11.53;73.56;101349.23;230565;1195;138896;-76
2021/10/28 16:27:46;;;;;;;21.40;19.20;;;;;;;11.61;73.51;101354.77;230576;1196;138882;-79
2021/10/28 16:32:48;;;;;;;27.90;25.00;;;;;;;11.63;73.36;101356.02;230375;1196;138669;-74
2021/10/28 16:37:51;;;;;;;22.40;19.40;;;;;;;11.53;73.87;101350.17;230438;1195;138490;-73
2021/10/28 16:42:52;;;;;;;21.40;19.30;;;;;;;11.40;74.34;101351.87;229621;1196;139295;-73
2021/10/28 16:47:54;;;;;;;25.00;22.30;;;;;;;11.20;74.93;101346.88;230293;1195;138903;-74
2021/10/28 16:52:56;;;;;;;27.30;22.90;;;;;;;11.20;75.11;101344.20;230366;1195;139747;-76
2021/10/28 16:57:57;;;;;;;28.30;23.40;;;;;;;11.26;74.73;101350.46;231144;1195;139508;-76
2021/10/28 17:02:59;;;;;;;31.00;26.20;;;;;;;11.17;75.22;101351.39;231870;1196;138955;-75
2021/10/28 17:08:00;;;;;;;31.70;26.00;;;;;;;11.17;75.32;101361.27;231807;1194;138827;-74
2021/10/28 17:13:02;;;;;;;27.00;22.60;;;;;;;10.97;75.74;101362.61;230870;1195;138780;-75
2021/10/28 17:18:04;;;;;;;26.50;23.30;;;;;;;10.99;76.01;101363.30;230438;1197;139140;-75
2021/10/28 17:23:14;;;;;;;27.40;24.50;;;;;;;10.90;75.99;101369.04;230202;1196;138434;-75
2021/10/28 17:28:16;;;;;;;28.30;24.50;;;;;;;10.93;76.18;101367.00;230792;1195;139013;-75
2021/10/28 17:33:17;;;;;;;28.30;25.00;;;;;;;10.90;76.05;101364.66;230672;1195;138943;-75
2021/10/28 17:38:20;;;;;;;27.10;23.90;;;;;;;10.77;76.45;101362.73;232855;1195;138612;-74
2021/10/28 17:43:24;;;;;;;24.80;22.10;;;;;;;10.74;76.57;101366.00;232913;1187;139797;-75
2021/10/28 17:48:26;;;;;;;26.20;23.40;;;;;;;10.72;76.60;101367.05;233794;1195;138828;-76
2021/10/28 17:53:28;;;;;;;27.60;24.60;;;;;;;10.70;76.63;101367.27;233143;1194;138320;-76
2021/10/28 17:58:29;;;;;;;27.30;23.60;;;;;;;10.58;76.94;101368.82;230161;1195;139059;-74
2021/10/28 18:03:32;;;;;;;28.30;24.60;;;;;;;10.52;77.23;101369.63;230450;1195;138834;-76
2021/10/28 18:08:34;;;;;;;27.10;24.10;;;;;;;10.52;77.12;101371.03;230868;1196;138206;-74
2021/10/28 18:13:36;;;;;;;28.00;25.00;;;;;;;10.44;77.45;101366.25;230459;1195;138741;-78
2021/10/28 18:18:38;;;;;;;29.00;25.30;;;;;;;10.39;77.43;101363.32;230176;1195;138825;-75
2021/10/28 18:23:43;;;;;;;31.60;26.70;;;;;;;10.34;77.78;101367.62;230307;1195;139073;-80
2021/10/28 18:28:46;;;;;;;;;;;;;;;10.29;77.72;101362.06;230887;1196;139062;-78
2021/10/28 18:33:49;;;;;;;31.30;27.00;;;;;;;10.12;78.52;101355.33;230498;1195;125232;-76
2021/10/28 18:38:50;;;;;;;32.00;28.20;;;;;;;10.08;78.75;101352.61;230408;1195;139638;-76
2021/10/28 18:43:53;;;;;;;32.30;27.80;;;;;;;10.20;78.43;101352.21;230363;1195;139336;-75
2021/10/28 18:49:00;;;;;;;33.30;29.70;;;;;;;10.31;77.88;101346.88;230275;1195;138887;-75
2021/10/28 18:54:03;;;;;;;34.10;30.50;;;;;;;10.24;77.97;101339.37;230315;1195;139343;-76
2021/10/28 18:59:05;;;;;;;33.10;29.70;;;;;;;10.17;78.31;101337.64;230721;1196;138574;-74
2021/10/28 19:04:06;;;;;;;34.50;29.70;;;;;;;10.03;78.67;101334.08;230495;1193;138290;-79
2021/10/28 19:09:08;;;;;;;33.10;29.00;;;;;;;9.93;79.13;101336.76;230224;1195;138626;-74
2021/10/28 19:14:10;;;;;;;33.60;29.10;;;;;;;9.93;78.86;101333.41;230430;1186;138986;-77
2021/10/28 19:19:12;;;;;;;36.20;30.20;;;;;;;9.88;78.78;101333.83;230753;1195;138497;-76
2021/10/28 19:24:14;;;;;;;37.40;33.00;;;;;;;9.86;78.42;101331.16;230652;1195;138620;-76
2021/10/28 19:29:17;;;;;;;38.50;34.30;;;;;;;9.64;78.82;101327.72;230438;1195;138879;-75
2021/10/28 19:34:19;;;;;;;38.60;33.60;;;;;;;9.54;79.20;101327.44;230200;1195;138900;-73
2021/10/28 19:49:46;;;;;;;48.00;35.20;;;;;;;9.41;79.48;101321.85;230293;1195;208458;-73
2021/10/28 19:54:49;;;;;;;41.20;36.10;;;;;;;9.33;79.54;101320.36;230544;1196;138645;-75
2021/10/28 19:59:58;;;;;;;39.30;34.60;;;;;;;9.21;80.01;101315.71;230684;1195;138495;-77
2021/10/28 20:20:58;;;;;;;37.50;32.70;;;;;;;9.13;80.63;101316.90;232952;1195;139109;-75
2021/10/28 20:25:59;;;;;;;37.80;31.70;;;;;;;8.99;80.71;101317.43;230730;1195;139081;-77
2021/10/28 20:31:02;;;;;;;40.00;32.40;;;;;;;8.89;81.53;101315.39;230240;1197;138512;-77
2021/10/28 20:41:08;;;;;;;39.10;32.70;;;;;;;8.83;81.42;101310.27;230584;1194;138863;-73
2021/10/28 20:46:18;;;;;;;42.60;34.40;;;;;;;8.89;81.15;101312.61;230519;1195;139355;-73
2021/10/28 20:51:21;;;;;;;37.80;31.80;;;;;;;8.76;81.28;101315.86;230304;1195;139185;-74
2021/10/28 20:56:26;;;;;;;35.10;31.30;;;;;;;8.56;81.88;101309.51;230690;1195;139285;-76
2021/10/28 21:01:28;;;;;;;37.10;31.70;;;;;;;8.44;82.67;101303.60;230631;1196;138773;-74
2021/10/28 21:06:30;;;;;;;39.70;32.80;;;;;;;8.59;82.09;101298.77;230520;1195;138891;-76
2021/10/28 21:11:37;;;;;;;37.50;31.20;;;;;;;8.51;82.18;101293.02;230031;1197;139412;-75
2021/10/28 21:16:39;;;;;;;38.60;31.50;;;;;;;8.45;82.50;101291.05;230351;1195;139043;-75
2021/10/28 21:21:42;;;;;;;40.50;33.60;;;;;;;8.48;82.96;101291.48;230671;1195;139646;-76
2021/10/28 21:26:45;;;;;;;38.20;32.70;;;;;;;8.59;82.47;101289.58;231158;1195;138638;-77
2021/10/28 21:31:46;;;;;;;33.70;29.50;;;;;;;8.48;82.57;101288.88;230190;1195;139252;-77
2021/10/28 21:36:48;;;;;;;39.10;32.90;;;;;;;8.31;83.33;101285.95;230262;1195;138472;-75
2021/10/28 21:41:50;;;;;;;35.00;29.90;;;;;;;8.31;83.49;101284.30;230537;1201;138905;-74
2021/10/28 21:46:52;;;;;;;39.20;32.20;;;;;;;8.31;83.46;101280.10;230764;1195;139127;-78
2021/10/28 21:51:57;;;;;;;37.30;32.10;;;;;;;8.31;83.28;101281.71;230041;1195;138696;-75
2021/10/28 21:57:05;;;;;;;38.70;32.70;;;;;;;8.22;83.90;101277.63;230228;1195;138534;-78
2021/10/28 22:28:45;;;;;;;40.20;34.40;;;;;;;8.16;84.00;101269.89;230464;1196;138198;-76
2021/10/28 22:33:47;;;;;;;39.00;31.80;;;;;;;8.17;83.77;101260.98;230070;1197;138476;-75
2021/10/28 22:38:57;;;;;;;36.70;32.40;;;;;;;8.18;83.26;101257.76;229933;1196;139368;-75
2021/10/28 22:43:59;;;;;;;39.60;32.80;;;;;;;8.12;83.43;101254.68;230624;1196;139861;-75
2021/10/28 22:49:01;;;;;;;42.20;32.70;;;;;;;8.08;83.40;101249.19;230112;1187;139167;-76
2021/10/28 22:54:03;;;;;;;41.60;35.00;;;;;;;7.95;83.85;101246.69;231085;1195;138689;-74
2021/10/28 22:59:05;;;;;;;39.80;35.10;;;;;;;7.97;83.64;101247.23;230794;1195;138702;-77
2021/10/28 23:04:30;;;;;;;36.90;32.20;;;;;;;7.83;83.74;101247.77;230870;1196;138698;-75
2021/10/28 23:25:45;;;;;;;39.90;33.40;;;;;;;7.67;83.34;101228.29;230245;1197;138410;-75
2021/10/28 23:30:47;;;;;;;43.60;36.20;;;;;;;7.52;83.54;101222.81;230484;1195;139187;-74
2021/10/28 23:35:48;;;;;;;40.40;34.00;;;;;;;7.53;84.19;101217.15;230411;1195;139198;-74
2021/10/28 23:40:50;;;;;;;45.60;36.90;;;;;;;7.56;82.99;101211.14;230398;1179;139870;-75
2021/10/28 23:45:51;;;;;;;46.30;38.70;;;;;;;7.58;82.71;101209.29;230636;1196;138564;-74
2021/10/28 23:50:53;;;;;;;46.80;38.50;;;;;;;7.52;82.37;101205.48;230407;1195;138572;-76
2021/10/28 23:55:54;;;;;;;44.40;36.40;;;;;;;7.33;82.76;101207.61;230311;1197;138777;-76
